Latest Weather Observations for Garden Island

IDW60901

Issued at 5:51 pm WST Thursday 13 June 2024 (issued every 10 minutes, with the page automatically refreshed every 10 minutes)

About weather observations | Map of Perth area stations | Latest observations for Perth area | Other Formats
Station Details ID: 009256 Name: GARDEN ISLAND HSF Lat: -32.24 Lon: 115.68 Height: 6.0 m
Data from the previous 72 hours. | See also: Recent months at Garden Island
Date/Time
WST
Temp
°C
App
Temp
°C
Dew
Point
°C
Rel
Hum
%
Delta-T
°C
Wind Press
QNH
hPa
Press
MSL
hPa
Rain since
9am
mm
Dir  Spd
km/h
Gust
km/h
Spd
kts
Gust
kts
13/05:30pm 17.3 14.4 10.9 66 3.4 S 17 20 9 11 1021.2 1021.2 0.0
13/05:00pm 17.6 14.3 10.9 65 3.6 S 19 20 10 11 1021.0 1021.0 0.0
13/04:30pm 17.7 14.5 11.9 69 3.2 S 20 22 11 12 1020.8 1020.8 0.0
13/04:00pm 17.6 14.4 11.9 69 3.1 SSW 20 24 11 13 1020.8 1020.8 0.0
13/03:30pm 17.8 14.9 12.3 70 3.0 SSW 19 22 10 12 1020.6 1020.6 0.0
13/03:00pm 18.0 16.2 12.2 69 3.2 S 13 17 7 9 1020.6 1020.6 0.0
13/02:30pm 17.7 16.1 11.5 67 3.4 S 11 15 6 8 1020.5 1020.5 0.0
13/02:00pm 17.7 15.8 11.7 68 3.3 S 13 15 7 8 1020.5 1020.5 0.0
13/01:30pm 17.4 15.8 11.4 68 3.3 SSE 11 13 6 7 1020.7 1020.7 0.0
13/01:00pm 17.3 16.0 11.1 67 3.3 SSE 9 13 5 7 1021.0 1021.0 0.0
13/12:30pm 17.4 17.4 11.2 67 3.4 SE 2 9 1 5 1021.6 1021.6 0.0
13/12:00pm 17.1 17.7 11.8 71 2.9 CALM 0 0 0 0 1021.8 1021.8 0.0
13/11:30am 16.6 15.6 12.2 75 2.4 ESE 9 9 5 5 1022.1 1022.1 0.0
13/11:00am 17.0 17.1 12.7 76 2.4 ESE 4 9 2 5 1022.4 1022.4 0.0
13/10:30am 16.3 15.8 12.7 79 2.0 ESE 7 11 4 6 1022.5 1022.5 0.0
13/10:00am 15.3 14.2 12.1 81 1.7 ESE 9 15 5 8 1022.8 1022.8 0.0
13/09:30am 14.4 11.8 11.9 85 1.3 ESE 17 20 9 11 1022.6 1022.6 0.0
13/09:00am 13.5 11.2 11.6 88 1.0 SE 15 19 8 10 1022.5 1022.5 0.0
13/08:30am 13.1 11.2 11.7 91 0.7 SE 13 15 7 8 1022.4 1022.4 0.0
13/08:00am 12.6 11.1 11.8 95 0.4 ESE 11 15 6 8 1022.1 1022.1 0.0
13/07:30am 11.2 9.7 10.6 96 0.3 ESE 9 11 5 6 1021.8 1021.8 0.0
13/07:00am 11.6 10.2 10.8 95 0.4 SE 9 13 5 7 1021.6 1021.6 0.0
13/06:30am 12.3 10.3 11.5 95 0.4 ESE 13 17 7 9 1021.3 1021.3 0.0
13/06:00am 12.4 10.3 11.3 93 0.6 SE 13 17 7 9 1021.1 1021.1 0.0
13/05:30am 12.8 10.2 12.0 95 0.4 SSE 17 20 9 11 1020.9 1020.9 0.0
13/05:00am 12.9 10.4 12.3 96 0.3 SE 17 19 9 10 1020.7 1020.7 0.0
13/04:30am 12.5 11.2 12.5 100 0.0 SE 11 13 6 7 1020.6 1020.6 0.0
13/04:00am 11.9 11.1 11.6 98 0.2 ESE 7 9 4 5 1020.6 1020.6 0.0
13/03:30am 11.8 10.5 11.3 97 0.3 ESE 9 9 5 5 1020.4 1020.4 0.0
13/03:00am 12.3 10.7 11.7 96 0.3 ESE 11 13 6 7 1020.4 1020.4 0.0
13/02:30am 13.6 12.1 13.1 97 0.3 SE 13 17 7 9 1020.4 1020.4 0.0
13/02:00am 13.0 12.0 12.4 96 0.3 ESE 9 11 5 6 1020.3 1020.3 0.0
13/01:30am 12.6 11.1 11.8 95 0.4 ESE 11 13 6 7 1020.4 1020.4 0.0
13/01:00am 12.8 11.6 11.7 93 0.6 ESE 9 11 5 6 1020.7 1020.7 0.0
13/12:30am 13.3 12.2 11.9 91 0.7 ESE 9 13 5 7 1020.8 1020.8 0.0
13/12:00am 13.9 12.8 11.9 88 1.1 ESE 9 13 5 7 1020.8 1020.8 0.0
 
Date/Time
WST
Temp
°C
App
Temp
°C
Dew
Point
°C
Rel
Hum
%
Delta-T
°C
Wind Press
QNH
hPa
Press
MSL
hPa
Rain since
9am
mm
Dir  Spd
km/h
Gust
km/h
Spd
kts
Gust
kts
12/11:30pm 14.9 12.7 12.2 84 1.5 ESE 15 17 8 9 1020.9 1020.9 0.0
12/11:00pm 15.3 12.8 12.2 82 1.7 SE 17 20 9 11 1021.0 1021.0 0.0
12/10:30pm 15.7 12.9 12.6 82 1.7 SE 19 22 10 12 1021.0 1021.0 0.0
12/10:00pm 15.5 13.0 12.4 82 1.7 SE 17 19 9 10 1021.0 1021.0 0.0
12/09:30pm 15.8 13.4 12.7 82 1.7 SSE 17 20 9 11 1021.0 1021.0 0.0
12/09:00pm 15.9 13.9 12.6 81 1.8 SSE 15 19 8 10 1021.0 1021.0 0.0
12/08:30pm 16.2 13.9 12.9 81 1.8 SSE 17 20 9 11 1020.8 1020.8 0.0
12/08:00pm 16.3 14.5 13.2 82 1.7 SE 15 17 8 9 1020.5 1020.5 0.0
12/07:30pm 16.5 15.1 13.4 82 1.7 SSE 13 15 7 8 1020.4 1020.4 0.0
12/07:00pm 17.2 14.6 13.9 81 1.9 SSE 20 24 11 13 1020.2 1020.2 0.0
12/06:30pm 17.6 16.1 11.9 69 3.1 SW 11 17 6 9 1019.8 1019.8 0.0
12/06:00pm 17.7 16.1 12.8 73 2.7 SSW 13 15 7 8 1019.4 1019.4 0.0
12/05:30pm 17.5 15.6 11.8 69 3.1 SW 13 17 7 9 1019.3 1019.3 0.0
12/05:00pm 17.6 14.6 13.7 78 2.2 SSW 22 28 12 15 1019.1 1019.1 0.0
12/04:48pm 18.2 15.8 13.7 75 2.6 SW 19 33 10 18 1019.0 1019.0 0.0
12/04:30pm 18.5 16.9 10.3 59 4.4 WSW 9 13 5 7 1018.9 1018.9 0.0
12/04:00pm 19.7 18.2 10.4 55 5.0 NW 9 17 5 9 1018.8 1018.8 0.0
12/03:30pm 19.5 18.4 14.3 72 3.0 N 13 20 7 11 1018.5 1018.5 0.0
12/03:00pm 19.6 17.7 14.2 71 3.1 NNW 17 20 9 11 1018.4 1018.4 0.0
12/02:30pm 19.8 18.2 15.0 74 2.8 NNW 17 20 9 11 1018.4 1018.4 0.0
12/02:00pm 19.4 17.7 14.6 74 2.8 NNW 17 20 9 11 1018.5 1018.5 0.0
12/01:30pm 19.4 18.5 15.9 80 2.1 NNE 15 20 8 11 1018.7 1018.7 0.0
12/01:00pm 17.5 16.1 14.6 83 1.7 NNE 15 19 8 10 1019.0 1019.0 0.0
12/12:30pm 18.2 17.2 14.5 79 2.1 NNE 13 20 7 11 1019.4 1019.4 0.0
12/12:00pm 19.1 19.0 15.0 77 2.4 NE 9 13 5 7 1019.8 1019.8 0.0
12/11:30am 18.8 18.1 15.5 81 1.9 NNE 13 17 7 9 1020.2 1020.2 0.0
12/11:00am 17.4 17.5 15.4 88 1.2 NE 9 15 5 8 1020.7 1020.7 0.0
12/10:30am 16.7 15.8 14.9 89 1.0 NE 13 17 7 9 1020.6 1020.6 0.0
12/10:00am 16.4 15.2 15.1 92 0.7 NNE 15 20 8 11 1020.9 1020.9 0.0
12/09:30am 16.0 14.7 14.7 92 0.7 NNE 15 20 8 11 1020.7 1020.7 0.0
12/09:00am 15.5 14.5 14.7 95 0.5 NE 13 19 7 10 1020.3 1020.3 0.6
12/08:30am 15.3 14.0 14.8 97 0.3 NE 15 19 8 10 1020.4 1020.4 0.6
12/08:00am 15.2 14.3 14.9 98 0.2 NE 13 17 7 9 1020.3 1020.3 0.6
12/07:30am 15.0 14.1 14.8 99 0.1 NE 13 15 7 8 1019.9 1019.9 0.6
12/07:00am 14.9 13.9 14.6 98 0.2 NE 13 15 7 8 1020.0 1020.0 0.6
12/06:30am 15.0 14.0 14.7 98 0.2 NE 13 17 7 9 1020.0 1020.0 0.6
12/06:00am 15.2 14.3 14.9 98 0.2 NNE 13 15 7 8 1020.2 1020.2 0.6
12/05:30am 15.0 13.7 14.7 98 0.2 NE 15 20 8 11 1019.9 1019.9 0.6
12/05:00am 15.3 13.6 14.7 96 0.3 NNE 17 24 9 13 1019.7 1019.7 0.6
12/04:30am 15.3 14.4 14.8 97 0.3 NNE 13 17 7 9 1019.9 1019.9 0.6
12/04:00am 15.4 14.6 15.1 98 0.2 NNE 13 20 7 11 1020.0 1020.0 0.4
12/03:30am 15.1 14.9 14.6 97 0.3 NNE 9 13 5 7 1019.8 1019.8 0.4
12/03:00am 15.5 13.9 15.0 97 0.3 NNE 17 20 9 11 1020.2 1020.2 0.4
12/02:30am 15.7 14.5 15.1 96 0.3 N 15 22 8 12 1020.3 1020.3 0.4
12/02:00am 15.4 14.5 14.8 96 0.3 N 13 19 7 10 1020.1 1020.1 0.4
12/01:30am 16.1 14.9 15.0 93 0.6 N 15 19 8 10 1020.2 1020.2 0.4
12/01:00am 15.8 13.9 14.2 90 0.9 N 17 22 9 12 1019.7 1019.7 0.2
12/12:30am 16.2 14.1 14.7 91 0.9 N 19 24 10 13 1020.0 1020.0 0.2
12/12:00am 16.1 14.0 14.8 92 0.7 N 19 24 10 13 1020.6 1020.6 0.2
 
Date/Time
WST
Temp
°C
App
Temp
°C
Dew
Point
°C
Rel
Hum
%
Delta-T
°C
Wind Press
QNH
hPa
Press
MSL
hPa
Rain since
9am
mm
Dir  Spd
km/h
Gust
km/h
Spd
kts
Gust
kts
11/11:30pm 16.6 15.9 15.3 92 0.8 N 13 20 7 11 1020.7 1020.7 0.2
11/11:00pm 16.4 14.3 15.3 93 0.6 N 20 24 11 13 1020.4 1020.4 0.2
11/10:30pm 16.4 14.4 15.4 94 0.6 NNE 20 26 11 14 1020.6 1020.6 0.2
11/10:00pm 16.4 14.3 15.3 93 0.6 N 20 28 11 15 1020.6 1020.6 0.2
11/09:30pm 16.6 14.2 15.3 92 0.8 N 22 30 12 16 1020.7 1020.7 0.2
11/09:00pm 16.5 13.5 14.9 90 0.9 NNE 24 32 13 17 1020.5 1020.5 0.2
11/08:30pm 16.4 13.4 14.8 90 0.9 N 24 30 13 16 1020.6 1020.6 0.2
11/08:00pm 16.5 13.5 14.7 89 1.0 NNE 24 32 13 17 1020.6 1020.6 0.2
11/07:30pm 16.6 14.4 14.8 89 1.0 NNE 20 26 11 14 1020.5 1020.5 0.2
11/07:00pm 16.8 14.7 14.6 87 1.3 NNE 19 22 10 12 1020.1 1020.1 0.2
11/06:30pm 16.9 14.5 14.4 85 1.4 NNE 20 28 11 15 1020.2 1020.2 0.2
11/06:00pm 17.0 14.1 14.1 83 1.6 NNE 22 30 12 16 1019.9 1019.9 0.2
11/05:30pm 17.0 14.5 14.1 83 1.7 NNE 20 26 11 14 1019.8 1019.8 0.2
11/05:00pm 17.2 14.7 14.1 82 1.8 NNE 20 30 11 16 1019.7 1019.7 0.2
11/04:30pm 17.5 14.2 14.0 80 2.0 NNE 24 32 13 17 1019.7 1019.7 0.2
11/04:00pm 17.8 14.9 13.9 78 2.2 NNE 22 32 12 17 1019.8 1019.8 0.2
11/03:30pm 18.4 16.1 14.1 76 2.5 N 19 24 10 13 1019.1 1019.1 0.2
11/03:00pm 18.3 16.0 14.2 77 2.3 NNE 19 24 10 13 1019.7 1019.7 0.2
11/02:30pm 19.0 15.6 13.8 72 3.0 N 24 32 13 17 1019.6 1019.6 0.0
11/02:00pm 17.9 15.2 13.4 75 2.5 N 20 26 11 14 1019.7 1019.7 0.0
11/01:30pm 17.6 14.2 13.7 78 2.2 NNE 24 32 13 17 1019.7 1019.7 0.0
11/01:00pm 18.4 15.8 13.9 75 2.6 N 20 28 11 15 1020.2 1020.2 0.0
11/12:30pm 17.8 16.1 13.7 77 2.3 N 15 22 8 12 1020.7 1020.7 0.0
11/12:00pm 17.8 15.4 13.9 78 2.2 NNE 19 24 10 13 1020.6 1020.6 0.0
11/11:30am 18.0 15.9 13.7 76 2.4 NNE 17 22 9 12 1021.1 1021.1 0.0
11/11:00am 18.4 16.5 14.3 77 2.4 NNE 17 22 9 12 1020.7 1020.7 0.0
11/10:30am 17.8 16.6 14.1 79 2.1 NE 13 17 7 9 1020.7 1020.7 0.0
11/10:00am 18.4 16.7 14.7 79 2.1 NNE 17 24 9 13 1021.0 1021.0 0.0
11/09:30am 17.3 15.8 14.2 82 1.8 NNE 15 20 8 11 1021.2 1021.2 0.0
11/09:00am 17.6 16.6 14.5 82 1.8 NE 13 19 7 10 1021.2 1021.2 0.2
11/08:30am 17.0 16.8 13.7 81 1.9 N 7 15 4 8 1020.7 1020.7 0.2
11/08:00am 18.4 16.1 10.3 59 4.3 W 13 17 7 9 1020.5 1020.5 0.2
11/07:30am 18.2 15.9 10.6 61 4.1 W 13 17 7 9 1020.0 1020.0 0.2
11/07:00am 18.2 16.5 11.3 64 3.7 WSW 11 17 6 9 1019.5 1019.5 0.2
11/06:30am 18.4 16.4 11.5 64 3.8 W 13 17 7 9 1019.4 1019.4 0.2
11/06:00am 18.4 16.0 11.5 64 3.8 WSW 15 19 8 10 1018.9 1018.9 0.2
11/05:30am 18.3 16.0 11.8 66 3.6 WSW 15 20 8 11 1019.1 1019.1 0.2
11/05:00am 18.3 15.3 12.1 67 3.4 WSW 19 24 10 13 1018.8 1018.8 0.2
11/04:30am 18.3 15.4 10.9 62 4.0 W 17 22 9 12 1018.7 1018.7 0.2
11/04:00am 18.2 15.2 10.6 61 4.1 W 17 22 9 12 1018.6 1018.6 0.2
11/03:30am 18.3 15.1 11.4 64 3.8 WSW 19 28 10 15 1018.9 1018.9 0.2
11/03:00am 17.5 15.1 12.6 73 2.7 WSW 17 26 9 14 1019.0 1019.0 0.2
11/02:30am 18.3 14.2 11.4 64 3.8 W 24 32 13 17 1019.2 1019.2 0.2
11/02:00am 17.9 13.9 11.9 68 3.3 WSW 24 30 13 16 1018.7 1018.7 0.2
11/01:30am 17.8 14.6 11.8 68 3.3 W 20 26 11 14 1018.5 1018.5 0.2
11/01:00am 17.7 13.8 12.2 70 3.0 W 24 32 13 17 1018.6 1018.6 0.2
11/12:30am 17.1 12.5 12.4 74 2.6 W 28 37 15 20 1018.8 1018.8 0.2
11/12:00am 18.5 14.4 11.3 63 3.9 W 24 32 13 17 1018.8 1018.8 0.0
 
Date/Time
WST
Temp
°C
App
Temp
°C
Dew
Point
°C
Rel
Hum
%
Delta-T
°C
Wind Press
QNH
hPa
Press
MSL
hPa
Rain since
9am
mm
Dir  Spd
km/h
Gust
km/h
Spd
kts
Gust
kts
10/11:30pm 18.6 13.2 10.9 61 4.2 W 30 37 16 20 1018.9 1018.9 0.0
10/11:00pm 18.4 14.2 11.2 63 3.9 W 24 33 13 18 1018.9 1018.9 0.0
10/10:30pm 18.3 15.2 12.3 68 3.3 WNW 20 30 11 16 1018.4 1018.4 0.0
10/10:00pm 18.1 12.5 11.4 65 3.6 WSW 32 43 17 23 1018.6 1018.6 0.0
10/09:30pm 18.6 13.7 11.2 62 4.0 W 28 37 15 20 1018.4 1018.4 0.0
10/09:00pm 18.5 12.6 10.3 59 4.4 W 32 43 17 23 1018.5 1018.5 0.0
10/08:30pm 18.3 12.8 12.5 69 3.2 W 33 46 18 25 1018.5 1018.5 0.0
10/08:00pm 18.7 13.0 11.8 64 3.8 W 33 43 18 23 1018.3 1018.3 0.0
10/07:30pm 18.6 12.9 11.2 62 4.0 W 32 39 17 21 1018.2 1018.2 0.0
10/07:00pm 18.7 12.4 9.8 56 4.7 W 33 46 18 25 1017.6 1017.6 0.0
10/06:30pm 18.6 13.3 11.2 62 4.0 WNW 30 46 16 25 1017.4 1017.4 0.0
10/06:00pm 18.6 13.2 10.9 61 4.2 WNW 30 41 16 22 1017.1 1017.1 0.0

Latest Capital City Observations: Canberra | Sydney | Melbourne | Brisbane | Adelaide | Perth | Hobart | Darwin

Other formats

Comma delimited format used in spreadsheet applications
http://www.bom.gov.au/fwo/IDW60901/IDW60901.95607.axf

JavaScript Object Notation format (JSON) in row-major order
http://www.bom.gov.au/fwo/IDW60901/IDW60901.95607.json

Data quality

Most of these data are generated automatically and are frequently updated. Quality checks on data are not normally performed. It is possible for incorrect values to appear. Refer to information at About Latest Weather Observations and please check the disclaimer before using these data.